Time;durP1;ratioP1;P1;durP2;ratioP2;P2;SDS_P1;SDS_P2;PMS_P1;PMS_P2;Temp;Humidity;BMP_temperature;BMP_pressure;BME280_temperature;BME280_humidity;BME280_pressure;Samples;Min_cycle;Max_cycle;Signal;HPM_P1;HPM_P2
2023/10/16 00:00:50;;;;;;;16.42;7.25;;;3.70;99.90;;;;;;4971311;28;20039;-63
2023/10/16 00:03:22;;;;;;;16.27;8.05;;;3.70;99.90;;;;;;4992635;28;20058;-62
2023/10/16 00:06:05;;;;;;;19.52;8.32;;;3.60;99.90;;;;;;4991269;28;20640;-62
2023/10/16 00:08:36;;;;;;;17.48;8.40;;;3.60;99.90;;;;;;5002917;28;20038;-62
2023/10/16 00:11:05;;;;;;;15.82;8.05;;;3.60;99.90;;;;;;5001282;28;20046;-62
2023/10/16 00:13:39;;;;;;;16.67;8.18;;;3.60;99.90;;;;;;5002863;28;20046;-63
2023/10/16 00:16:15;;;;;;;16.45;7.80;;;3.60;99.90;;;;;;4987609;28;20054;-61
2023/10/16 00:18:53;;;;;;;18.45;8.20;;;3.60;99.90;;;;;;5002303;28;20053;-62
2023/10/16 00:21:24;;;;;;;15.63;7.72;;;3.50;99.90;;;;;;5002647;28;20054;-63
2023/10/16 00:23:58;;;;;;;15.45;7.18;;;3.50;99.90;;;;;;4989707;28;20065;-63
2023/10/16 00:26:26;;;;;;;15.05;7.43;;;3.50;99.90;;;;;;4993629;28;20046;-64
2023/10/16 00:32:07;;;;;;;19.50;8.10;;;3.50;99.90;;;;;;4995187;28;20065;-62
2023/10/16 00:35:03;;;;;;;16.58;7.63;;;3.50;99.90;;;;;;4950510;28;20047;-62
2023/10/16 00:37:34;;;;;;;19.52;7.30;;;3.50;99.90;;;;;;4976441;28;20043;-63
2023/10/16 00:40:19;;;;;;;13.13;6.80;;;3.50;99.90;;;;;;4969519;28;20039;-63
2023/10/16 00:42:48;;;;;;;15.00;7.00;;;3.50;99.90;;;;;;4973294;28;20767;-62
2023/10/16 00:45:20;;;;;;;12.88;6.38;;;3.50;99.90;;;;;;4970797;28;20047;-62
2023/10/16 00:47:48;;;;;;;16.05;7.22;;;3.50;99.90;;;;;;4965538;28;20047;-62
2023/10/16 00:50:19;;;;;;;16.90;6.70;;;3.50;99.90;;;;;;4976477;28;20047;-59
2023/10/16 00:52:47;;;;;;;15.23;6.40;;;3.50;99.90;;;;;;4987315;28;20054;-62
2023/10/16 00:55:19;;;;;;;12.35;7.05;;;3.40;99.90;;;;;;4988086;28;20046;-63
2023/10/16 00:57:48;;;;;;;15.35;7.07;;;3.40;99.90;;;;;;4986824;28;20454;-63
2023/10/16 01:00:17;;;;;;;17.02;6.55;;;3.40;99.90;;;;;;4986090;28;20050;-59
2023/10/16 01:02:45;;;;;;;12.53;6.27;;;3.40;99.90;;;;;;4959471;28;20062;-62
2023/10/16 01:05:18;;;;;;;14.75;7.72;;;3.40;99.90;;;;;;4981270;28;20509;-63
2023/10/16 01:07:47;;;;;;;16.60;6.53;;;3.40;99.90;;;;;;4982470;28;20046;-63
2023/10/16 01:10:16;;;;;;;12.18;6.78;;;3.40;99.90;;;;;;4989800;28;20046;-64
2023/10/16 01:12:54;;;;;;;12.60;6.23;;;3.40;99.90;;;;;;4990965;28;20050;-61
2023/10/16 01:15:46;;;;;;;12.57;6.25;;;3.40;99.90;;;;;;4976916;28;20309;-62
2023/10/16 01:18:18;;;;;;;12.13;5.95;;;3.40;99.90;;;;;;4989960;28;20046;-59
2023/10/16 01:20:48;;;;;;;13.30;6.25;;;3.40;99.90;;;;;;4974465;28;20047;-60
2023/10/16 01:23:18;;;;;;;11.40;6.03;;;3.30;99.90;;;;;;4986487;28;20046;-61
2023/10/16 01:25:48;;;;;;;12.13;6.13;;;3.30;99.90;;;;;;4988291;28;20506;-60
2023/10/16 01:28:20;;;;;;;16.23;7.40;;;3.30;99.90;;;;;;4990099;28;20050;-64
2023/10/16 01:30:49;;;;;;;13.70;6.10;;;3.30;99.90;;;;;;4972572;28;20058;-61
2023/10/16 01:33:19;;;;;;;;;;;3.30;99.90;;;;;;4977092;28;20070;-62
2023/10/16 01:35:48;;;;;;;12.93;5.80;;;3.30;99.90;;;;;;4975440;28;20279;-63
2023/10/16 01:38:17;;;;;;;10.68;5.43;;;3.20;99.90;;;;;;4981847;28;20043;-61
2023/10/16 01:43:33;;;;;;;12.13;5.72;;;3.30;99.90;;;;;;4974978;28;20304;-61
2023/10/16 01:46:18;;;;;;;;;;;;;;;;;;;;;
2023/10/16 01:48:47;;;;;;;11.43;5.70;;;3.20;99.90;;;;;;4980735;28;20055;-60
2023/10/16 01:51:19;;;;;;;13.43;6.00;;;3.20;99.90;;;;;;4975724;28;20063;-64
2023/10/16 01:53:47;;;;;;;15.00;5.40;;;3.20;99.90;;;;;;4973933;28;20039;-62
2023/10/16 01:56:17;;;;;;;11.60;5.20;;;3.30;99.90;;;;;;4986878;28;20046;-62
2023/10/16 01:58:46;;;;;;;;;;;3.30;99.90;;;;;;4985461;28;20045;-62
2023/10/16 02:01:18;;;;;;;11.52;5.88;;;3.20;99.90;;;;;;4989040;28;19922;-62
2023/10/16 02:03:49;;;;;;;11.98;5.22;;;3.30;99.90;;;;;;4975916;28;20061;-64
2023/10/16 02:06:18;;;;;;;10.95;5.35;;;3.30;99.90;;;;;;4979286;28;20047;-63
2023/10/16 02:08:48;;;;;;;11.73;5.25;;;3.30;99.90;;;;;;4976414;28;20046;-63
2023/10/16 02:11:16;;;;;;;14.80;5.03;;;3.30;99.90;;;;;;4975233;28;20059;-61
2023/10/16 02:13:44;;;;;;;12.75;5.38;;;3.30;99.90;;;;;;4985058;28;20123;-65
2023/10/16 02:16:15;;;;;;;13.57;6.38;;;3.20;99.90;;;;;;4974915;28;20054;-64
2023/10/16 02:18:47;;;;;;;11.27;5.30;;;3.30;99.90;;;;;;4987419;28;20039;-62
2023/10/16 02:21:15;;;;;;;10.82;5.22;;;3.30;99.90;;;;;;4988806;28;20081;-60
2023/10/16 02:23:47;;;;;;;9.30;4.88;;;3.30;99.90;;;;;;4982012;28;20042;-60
2023/10/16 02:26:19;;;;;;;12.95;6.18;;;3.30;99.90;;;;;;4978752;28;20054;-59
2023/10/16 02:29:00;;;;;;;13.13;5.35;;;3.30;99.90;;;;;;4981093;28;20038;-61
2023/10/16 02:31:29;;;;;;;11.82;6.00;;;3.30;99.90;;;;;;4974396;28;20051;-61
2023/10/16 02:34:12;;;;;;;12.30;6.90;;;3.20;99.90;;;;;;4985406;28;20046;-62
2023/10/16 02:36:47;;;;;;;14.27;6.10;;;3.20;99.90;;;;;;4990702;28;20051;-61
2023/10/16 02:39:35;;;;;;;17.65;5.55;;;3.20;99.90;;;;;;4972752;28;20051;-62
2023/10/16 02:42:08;;;;;;;12.68;6.25;;;3.20;99.90;;;;;;4978834;28;20042;-61
2023/10/16 02:44:39;;;;;;;16.00;6.32;;;3.20;99.90;;;;;;4991407;28;20038;-63
2023/10/16 02:47:13;;;;;;;16.40;6.95;;;3.10;99.90;;;;;;4987425;28;20050;-62
2023/10/16 02:49:47;;;;;;;11.15;6.20;;;3.10;99.90;;;;;;4980157;28;20609;-63
2023/10/16 02:52:19;;;;;;;14.77;7.75;;;3.10;99.90;;;;;;4992075;28;20046;-61
2023/10/16 02:54:48;;;;;;;13.45;6.82;;;3.10;99.90;;;;;;4990509;28;20053;-61
2023/10/16 02:57:16;;;;;;;15.85;6.97;;;3.00;99.90;;;;;;4993123;28;20061;-66
2023/10/16 02:59:45;;;;;;;14.88;6.85;;;3.00;99.90;;;;;;4970182;28;20054;-64
2023/10/16 03:02:22;;;;;;;13.00;7.15;;;2.90;99.90;;;;;;4973841;28;20050;-61
2023/10/16 03:04:56;;;;;;;14.80;8.05;;;2.90;99.90;;;;;;4976062;28;20041;-64
2023/10/16 03:07:25;;;;;;;13.65;6.38;;;2.90;99.90;;;;;;4986384;28;20046;-62
2023/10/16 03:09:52;;;;;;;14.27;6.97;;;2.80;99.90;;;;;;4978761;28;20422;-58
2023/10/16 03:12:21;;;;;;;12.57;6.75;;;2.80;99.90;;;;;;4985108;28;20518;-58
2023/10/16 03:14:56;;;;;;;12.25;6.95;;;2.80;99.90;;;;;;4988961;28;20046;-59
2023/10/16 03:17:25;;;;;;;13.23;7.38;;;2.80;99.90;;;;;;4991263;28;20398;-60
2023/10/16 03:19:55;;;;;;;16.45;6.13;;;2.80;99.90;;;;;;4984975;28;20050;-59
2023/10/16 03:22:23;;;;;;;9.98;6.78;;;2.80;99.90;;;;;;4961953;28;20061;-63
2023/10/16 03:24:59;;;;;;;15.43;7.20;;;2.80;99.90;;;;;;4990253;28;20043;-61
2023/10/16 03:27:28;;;;;;;14.63;7.40;;;2.70;99.90;;;;;;4982789;28;20053;-59
2023/10/16 03:29:58;;;;;;;13.98;6.95;;;2.70;99.90;;;;;;4990998;28;20046;-60
2023/10/16 03:32:28;;;;;;;12.02;6.55;;;2.70;99.90;;;;;;4985431;28;20066;-59
2023/10/16 03:34:57;;;;;;;15.07;7.40;;;2.70;99.90;;;;;;4975494;28;20047;-60
2023/10/16 03:37:25;;;;;;;15.85;7.13;;;2.70;99.90;;;;;;4985012;28;20051;-59
2023/10/16 03:39:56;;;;;;;17.27;7.95;;;2.70;99.90;;;;;;4972311;28;20039;-60
2023/10/16 03:42:28;;;;;;;12.68;7.03;;;2.70;99.90;;;;;;4974452;28;20039;-61
2023/10/16 03:44:56;;;;;;;15.02;7.07;;;2.60;99.90;;;;;;4984734;28;20043;-61
2023/10/16 03:47:24;;;;;;;16.35;6.82;;;2.70;99.90;;;;;;4984691;28;20071;-62
2023/10/16 03:49:52;;;;;;;13.48;7.10;;;2.70;99.90;;;;;;4981822;28;20050;-62
2023/10/16 03:52:19;;;;;;;15.57;6.57;;;2.70;99.90;;;;;;4987272;28;20045;-62
2023/10/16 03:54:47;;;;;;;13.35;7.15;;;2.70;99.90;;;;;;4983288;28;20043;-61
2023/10/16 03:57:20;;;;;;;18.25;6.95;;;2.70;99.90;;;;;;4988279;28;20085;-61
2023/10/16 03:59:47;;;;;;;9.82;6.15;;;2.70;99.90;;;;;;4989653;28;21140;-61
2023/10/16 04:02:23;;;;;;;12.80;6.30;;;2.70;99.90;;;;;;4986490;28;20759;-61
2023/10/16 04:04:53;;;;;;;12.95;7.45;;;2.70;99.90;;;;;;4977596;28;20034;-61
2023/10/16 04:07:22;;;;;;;11.73;6.25;;;2.70;99.90;;;;;;4978646;28;20487;-62
2023/10/16 04:09:50;;;;;;;14.25;6.68;;;2.60;99.90;;;;;;4980945;28;20050;-63
2023/10/16 04:12:21;;;;;;;14.43;6.70;;;2.70;99.90;;;;;;4978479;28;20051;-63
2023/10/16 04:14:55;;;;;;;17.60;6.90;;;2.70;99.90;;;;;;4986928;28;20047;-64
2023/10/16 04:17:32;;;;;;;14.80;6.85;;;2.60;99.90;;;;;;4987412;28;20069;-64
2023/10/16 04:20:30;;;;;;;14.65;7.32;;;2.60;99.90;;;;;;4971232;28;20498;-65
2023/10/16 04:22:57;;;;;;;12.68;6.35;;;2.60;99.90;;;;;;4980294;28;20057;-63
2023/10/16 04:25:45;;;;;;;11.07;6.35;;;2.60;99.90;;;;;;4978505;28;20518;-62
2023/10/16 04:28:28;;;;;;;12.15;6.43;;;2.60;99.90;;;;;;4971275;28;20074;-65
2023/10/16 04:31:24;;;;;;;13.18;6.97;;;2.60;99.90;;;;;;4975173;28;20047;-64
2023/10/16 04:33:48;;;;;;;13.50;6.80;;;2.60;99.90;;;;;;4988000;28;20478;-64
2023/10/16 04:40:28;;;;;;;16.52;7.22;;;2.60;99.90;;;;;;4986935;28;20062;-62
2023/10/16 04:45:24;;;;;;;21.83;7.88;;;2.60;99.90;;;;;;4973169;28;20505;-65
2023/10/16 04:53:11;;;;;;;24.08;9.15;;;2.50;99.90;;;;;;4979894;28;20043;-64
2023/10/16 05:15:20;;;;;;;;;;;2.50;99.90;;;;;;4969380;28;20050;-63
2023/10/16 05:17:57;;;;;;;27.33;11.18;;;2.50;99.90;;;;;;4970154;28;19930;-61
2023/10/16 06:16:34;;;;;;;20.20;9.50;;;3.10;99.90;;;;;;4970036;28;20051;-65
2023/10/16 06:19:07;;;;;;;19.48;9.48;;;2.40;99.90;;;;;;4979590;28;20059;-61
2023/10/16 06:21:54;;;;;;;26.60;9.95;;;2.40;99.90;;;;;;4967865;28;20043;-63
2023/10/16 06:24:32;;;;;;;20.98;10.70;;;2.40;99.90;;;;;;4959633;28;20043;-64
2023/10/16 06:27:09;;;;;;;21.83;10.02;;;2.40;99.90;;;;;;4986083;28;20061;-63
2023/10/16 06:29:53;;;;;;;23.08;10.43;;;2.40;99.90;;;;;;4975346;28;20504;-62
2023/10/16 06:32:26;;;;;;;22.08;9.75;;;2.40;99.90;;;;;;4973474;28;20059;-63
2023/10/16 06:35:07;;;;;;;27.25;12.23;;;2.40;99.90;;;;;;4980301;28;20066;-61
2023/10/16 06:37:38;;;;;;;17.90;9.98;;;2.40;99.90;;;;;;4976006;28;20570;-64
2023/10/16 06:43:10;;;;;;;20.10;10.38;;;2.40;99.90;;;;;;4992232;28;20058;-64
2023/10/16 06:45:49;;;;;;;22.08;10.70;;;2.40;99.90;;;;;;4984514;28;20510;-66
2023/10/16 06:48:19;;;;;;;24.65;11.32;;;2.40;99.90;;;;;;4988924;28;20053;-64
2023/10/16 06:51:03;;;;;;;31.02;10.77;;;2.40;99.90;;;;;;4988012;28;20050;-60
2023/10/16 06:53:33;;;;;;;25.05;11.32;;;2.40;99.90;;;;;;4988296;28;20053;-63
2023/10/16 06:56:05;;;;;;;22.08;10.75;;;2.40;99.90;;;;;;4975683;28;20054;-64
2023/10/16 06:58:34;;;;;;;29.65;12.07;;;2.50;99.90;;;;;;4980596;28;20055;-63
2023/10/16 07:01:06;;;;;;;30.83;14.20;;;2.40;99.90;;;;;;4988284;28;20057;-63
2023/10/16 07:03:34;;;;;;;26.63;13.35;;;2.50;99.90;;;;;;4985820;28;20058;-63
2023/10/16 07:06:05;;;;;;;25.80;13.07;;;2.50;99.90;;;;;;4970188;28;20598;-63
2023/10/16 07:08:33;;;;;;;24.92;12.65;;;2.50;99.90;;;;;;4964206;28;20062;-63
2023/10/16 07:11:11;;;;;;;22.05;13.15;;;2.60;99.90;;;;;;4988618;28;20510;-64
2023/10/16 07:13:39;;;;;;;27.38;13.07;;;2.50;99.90;;;;;;4988014;28;20046;-64
2023/10/16 07:16:09;;;;;;;33.20;13.25;;;2.60;99.90;;;;;;4985842;28;20043;-64
2023/10/16 07:18:42;;;;;;;27.85;13.90;;;2.60;99.90;;;;;;4987806;28;20054;-64
2023/10/16 07:21:16;;;;;;;39.03;13.35;;;2.60;99.90;;;;;;4988038;28;20504;-64
2023/10/16 07:23:44;;;;;;;25.05;14.18;;;2.70;99.90;;;;;;4989456;28;20054;-62
2023/10/16 07:26:19;;;;;;;33.75;13.60;;;2.70;99.90;;;;;;4988469;28;20055;-62
2023/10/16 07:28:49;;;;;;;31.38;14.38;;;2.70;99.90;;;;;;4988283;28;20058;-64
2023/10/16 07:31:18;;;;;;;26.02;12.25;;;2.80;99.90;;;;;;4988112;28;20485;-62
2023/10/16 07:33:50;;;;;;;33.83;14.13;;;2.80;99.90;;;;;;4988794;28;20069;-66
2023/10/16 07:36:21;;;;;;;38.80;16.13;;;2.80;99.90;;;;;;4972469;28;20047;-65
2023/10/16 07:38:50;;;;;;;29.98;15.35;;;2.90;99.90;;;;;;4980288;28;20054;-60
2023/10/16 07:41:25;;;;;;;35.78;16.30;;;2.90;99.90;;;;;;4974686;28;20043;-63
2023/10/16 07:43:56;;;;;;;35.67;15.00;;;3.00;99.90;;;;;;4977287;28;20451;-61
2023/10/16 07:46:30;;;;;;;30.50;14.75;;;3.00;99.90;;;;;;4969596;28;20051;-64
2023/10/16 07:49:15;;;;;;;26.73;14.23;;;3.00;99.90;;;;;;4968276;28;20049;-60
2023/10/16 07:51:47;;;;;;;29.60;15.68;;;3.10;99.90;;;;;;4969817;28;20058;-63
2023/10/16 07:54:20;;;;;;;29.88;14.98;;;3.10;99.90;;;;;;4980150;28;20678;-62
2023/10/16 07:56:57;;;;;;;32.70;16.15;;;3.20;99.90;;;;;;4966904;28;20051;-64
2023/10/16 07:59:35;;;;;;;36.83;16.67;;;3.20;99.90;;;;;;4982251;28;20065;-66
2023/10/16 08:02:08;;;;;;;31.45;17.10;;;3.30;99.90;;;;;;4972500;28;20053;-63
2023/10/16 08:04:36;;;;;;;43.08;16.45;;;3.30;99.90;;;;;;4987966;28;20054;-64
2023/10/16 08:07:24;;;;;;;44.17;19.05;;;3.40;99.90;;;;;;4968876;28;20053;-63
2023/10/16 08:10:40;;;;;;;37.55;16.08;;;3.40;99.90;;;;;;4972175;28;20061;-64
2023/10/16 08:13:16;;;;;;;44.47;20.75;;;3.50;99.90;;;;;;4979421;28;20045;-63
2023/10/16 08:15:45;;;;;;;38.65;21.77;;;3.50;99.90;;;;;;4977469;28;20058;-62
2023/10/16 08:18:14;;;;;;;67.40;33.95;;;3.60;99.90;;;;;;4982524;28;20230;-62
2023/10/16 08:21:00;;;;;;;65.18;34.45;;;3.60;99.90;;;;;;4979118;28;20390;-64
2023/10/16 08:23:34;;;;;;;70.87;36.40;;;3.70;99.90;;;;;;4985130;28;20069;-61
2023/10/16 08:26:19;;;;;;;67.45;34.67;;;3.80;99.90;;;;;;4973754;28;20046;-62
2023/10/16 08:29:17;;;;;;;61.95;33.50;;;3.90;99.90;;;;;;4981074;28;20333;-62
2023/10/16 08:31:47;;;;;;;46.83;19.88;;;4.00;99.90;;;;;;4983436;28;20509;-62
2023/10/16 08:34:20;;;;;;;31.92;18.80;;;4.10;99.90;;;;;;4984513;28;20053;-62
2023/10/16 08:36:53;;;;;;;37.03;18.67;;;4.20;99.90;;;;;;4969491;28;20503;-63
2023/10/16 08:39:22;;;;;;;32.78;19.42;;;4.30;99.90;;;;;;4968179;28;20042;-63
2023/10/16 08:41:52;;;;;;;34.42;21.08;;;4.40;99.90;;;;;;4979110;28;20057;-63
2023/10/16 08:44:24;;;;;;;29.85;17.95;;;4.50;99.90;;;;;;4981522;28;20054;-66
2023/10/16 08:49:26;;;;;;;35.88;16.48;;;4.70;99.90;;;;;;4974540;28;20054;-62
2023/10/16 08:51:55;;;;;;;31.25;15.70;;;4.80;99.90;;;;;;4969871;28;20209;-64
2023/10/16 08:57:16;;;;;;;23.20;9.70;;;4.90;99.90;;;;;;4985248;28;20057;-63
2023/10/16 08:59:46;;;;;;;21.08;9.55;;;5.00;99.90;;;;;;4971192;28;20293;-63
2023/10/16 09:02:17;;;;;;;16.02;9.73;;;5.10;99.90;;;;;;4972389;28;20478;-64
2023/10/16 09:04:48;;;;;;;19.50;9.68;;;5.20;99.90;;;;;;4976184;28;20065;-62
2023/10/16 09:07:19;;;;;;;21.40;9.57;;;5.30;99.90;;;;;;4986203;28;20057;-63
2023/10/16 09:09:53;;;;;;;14.90;8.13;;;5.50;99.90;;;;;;4972625;28;20050;-63
2023/10/16 09:12:27;;;;;;;15.00;7.65;;;5.60;99.90;;;;;;4972075;28;20047;-64
2023/10/16 09:15:05;;;;;;;20.65;9.50;;;5.70;99.90;;;;;;4981335;28;20054;-63
2023/10/16 09:17:38;;;;;;;15.40;9.27;;;5.80;99.90;;;;;;4984380;28;20039;-63
2023/10/16 09:20:13;;;;;;;16.80;8.40;;;5.90;99.90;;;;;;4986907;28;20061;-63
2023/10/16 09:22:46;;;;;;;14.38;8.13;;;6.00;99.90;;;;;;4985877;28;20387;-62
2023/10/16 09:25:18;;;;;;;15.68;7.90;;;6.10;99.90;;;;;;4976092;28;20414;-63
2023/10/16 09:28:05;;;;;;;19.85;7.75;;;6.20;99.90;;;;;;4974017;28;20046;-63
2023/10/16 09:30:33;;;;;;;19.33;7.95;;;6.30;99.90;;;;;;4973623;28;20062;-61
2023/10/16 09:33:03;;;;;;;12.95;7.60;;;6.40;99.90;;;;;;4981365;28;20051;-63
2023/10/16 09:35:32;;;;;;;16.52;7.43;;;6.50;99.90;;;;;;4984380;28;20069;-64
2023/10/16 09:38:11;;;;;;;13.85;7.63;;;6.60;99.90;;;;;;4989295;28;20042;-63
2023/10/16 09:40:39;;;;;;;16.98;7.13;;;6.80;99.90;;;;;;4983248;28;20054;-63
2023/10/16 09:43:24;;;;;;;18.88;7.07;;;6.90;99.90;;;;;;4981357;28;20058;-64
2023/10/16 09:46:33;;;;;;;14.20;6.80;;;7.00;99.90;;;;;;4983458;28;20054;-64
2023/10/16 09:48:42;;;;;;;15.10;6.25;;;7.20;99.90;;;;;;4984343;28;20046;-63
2023/10/16 09:51:12;;;;;;;14.43;5.78;;;7.40;99.90;;;;;;4989791;28;20046;-63
2023/10/16 09:53:41;;;;;;;11.20;5.82;;;7.50;99.90;;;;;;4990276;28;20058;-64
2023/10/16 09:56:12;;;;;;;14.65;4.28;;;7.60;99.90;;;;;;4987692;28;20069;-64
2023/10/16 09:58:51;;;;;;;12.45;4.18;;;7.70;99.90;;;;;;4977859;28;20070;-64
2023/10/16 10:01:29;;;;;;;11.35;4.47;;;7.80;99.90;;;;;;4976912;28;20062;-61
2023/10/16 10:03:59;;;;;;;9.30;3.55;;;7.90;99.90;;;;;;4988524;28;20529;-61
2023/10/16 10:06:34;;;;;;;7.63;3.72;;;8.00;99.90;;;;;;4987580;28;20387;-63
2023/10/16 10:11:44;;;;;;;10.88;4.00;;;8.10;99.90;;;;;;4978420;28;20053;-60
2023/10/16 10:17:00;;;;;;;10.20;3.55;;;8.20;99.90;;;;;;4976159;28;19930;-63
2023/10/16 10:19:32;;;;;;;15.02;4.13;;;8.30;99.90;;;;;;4986000;28;20054;-63
2023/10/16 10:22:16;;;;;;;11.40;3.50;;;8.40;99.90;;;;;;4973836;28;20055;-63
2023/10/16 10:24:51;;;;;;;12.93;3.65;;;8.40;99.90;;;;;;4982605;28;20046;-63
2023/10/16 10:27:20;;;;;;;7.00;3.30;;;8.50;99.90;;;;;;4988883;28;20050;-62
2023/10/16 10:29:48;;;;;;;8.55;3.60;;;8.60;99.90;;;;;;4988597;28;20038;-63
2023/10/16 10:32:16;;;;;;;10.65;4.13;;;8.60;99.90;;;;;;4976327;28;20446;-64
2023/10/16 10:34:45;;;;;;;7.75;3.47;;;8.70;99.90;;;;;;4976327;28;20046;-64
2023/10/16 10:37:51;;;;;;;6.90;3.22;;;8.80;99.90;;;;;;4987600;28;20053;-63
2023/10/16 10:40:22;;;;;;;9.38;3.30;;;8.90;99.90;;;;;;4967123;28;20378;-61
2023/10/16 10:42:54;;;;;;;6.50;2.47;;;9.00;99.90;;;;;;4981802;28;20073;-62
2023/10/16 10:45:34;;;;;;;7.53;2.53;;;9.00;99.90;;;;;;4981196;28;20046;-62
2023/10/16 10:48:09;;;;;;;10.55;3.17;;;9.00;99.90;;;;;;4982548;28;20566;-61
2023/10/16 10:50:38;;;;;;;7.05;3.42;;;9.10;99.90;;;;;;4970183;28;20054;-62
2023/10/16 10:53:13;;;;;;;12.27;3.25;;;9.10;99.90;;;;;;4984361;28;20065;-63
2023/10/16 10:55:57;;;;;;;10.32;3.30;;;9.20;99.90;;;;;;4981404;28;20062;-63
2023/10/16 10:58:31;;;;;;;6.75;2.80;;;9.30;99.90;;;;;;4985828;28;20057;-63
2023/10/16 11:03:47;;;;;;;12.30;2.85;;;9.40;99.90;;;;;;4977400;28;20559;-62
2023/10/16 11:06:21;;;;;;;5.38;2.45;;;9.50;99.90;;;;;;4989963;28;20054;-61
2023/10/16 11:08:57;;;;;;;7.63;2.88;;;9.60;99.90;;;;;;4987629;28;20046;-62
2023/10/16 11:11:27;;;;;;;7.28;2.92;;;9.70;99.90;;;;;;4989508;28;20058;-63
2023/10/16 11:13:55;;;;;;;4.78;2.15;;;9.80;99.90;;;;;;4985207;28;20054;-62
2023/10/16 11:16:24;;;;;;;8.13;2.70;;;9.80;99.90;;;;;;4985128;28;20050;-61
2023/10/16 11:18:59;;;;;;;5.23;2.53;;;9.90;99.90;;;;;;4986121;28;20042;-64
2023/10/16 11:21:28;;;;;;;5.90;2.90;;;10.00;99.90;;;;;;4981538;28;20786;-62
2023/10/16 11:24:00;;;;;;;11.32;3.00;;;10.00;99.90;;;;;;4969508;28;20058;-65
2023/10/16 11:26:30;;;;;;;7.85;2.53;;;10.10;99.90;;;;;;4979016;28;20055;-64
2023/10/16 11:29:00;;;;;;;;;;;10.20;99.90;;;;;;4987500;28;20046;-61
2023/10/16 11:31:28;;;;;;;6.00;2.47;;;10.20;99.90;;;;;;4980358;28;19922;-61
2023/10/16 11:34:00;;;;;;;3.97;1.98;;;10.30;99.90;;;;;;4968859;28;20070;-62
2023/10/16 11:36:31;;;;;;;5.63;2.05;;;10.40;99.90;;;;;;4977426;28;20394;-61
2023/10/16 11:39:08;;;;;;;5.60;2.05;;;10.50;99.90;;;;;;4980156;28;20058;-63
2023/10/16 11:41:36;;;;;;;6.15;2.20;;;10.60;99.90;;;;;;4971617;28;20509;-61
2023/10/16 11:44:14;;;;;;;6.88;2.28;;;10.80;99.90;;;;;;4971870;28;20046;-62
2023/10/16 11:46:45;;;;;;;8.23;2.40;;;10.80;99.90;;;;;;4969300;28;20051;-60
2023/10/16 11:49:22;;;;;;;6.32;2.17;;;10.90;99.90;;;;;;4969886;28;20511;-62
2023/10/16 11:51:52;;;;;;;8.25;2.30;;;11.00;99.90;;;;;;4974577;28;20046;-60
2023/10/16 11:54:25;;;;;;;7.75;2.25;;;11.10;99.90;;;;;;4983129;28;20042;-63
2023/10/16 11:56:56;;;;;;;7.05;1.90;;;11.20;99.90;;;;;;4989167;28;20431;-62
2023/10/16 11:59:28;;;;;;;6.32;2.08;;;11.20;99.90;;;;;;4978205;28;20046;-61
2023/10/16 12:01:59;;;;;;;3.53;1.80;;;11.30;99.90;;;;;;4969002;28;20043;-60
2023/10/16 12:04:31;;;;;;;5.38;2.15;;;11.30;99.90;;;;;;4974020;28;20050;-58
2023/10/16 12:07:00;;;;;;;5.28;1.95;;;11.40;99.90;;;;;;4989118;28;20042;-61
2023/10/16 12:09:36;;;;;;;3.45;1.80;;;11.50;99.90;;;;;;4972601;28;20051;-61
2023/10/16 12:12:06;;;;;;;3.15;2.00;;;11.70;99.90;;;;;;4971422;28;20483;-61
2023/10/16 12:14:37;;;;;;;6.15;2.15;;;11.80;99.90;;;;;;4984178;28;20145;-62
2023/10/16 12:17:06;;;;;;;6.22;2.60;;;11.90;99.90;;;;;;4988719;28;20046;-60
2023/10/16 12:19:34;;;;;;;5.38;2.63;;;11.90;99.90;;;;;;4986592;28;20034;-60
2023/10/16 12:22:02;;;;;;;7.15;2.75;;;12.00;99.90;;;;;;4970070;28;20051;-61
2023/10/16 12:24:30;;;;;;;8.60;3.42;;;12.00;99.90;;;;;;4980718;28;20061;-62
2023/10/16 12:27:01;;;;;;;6.35;2.67;;;12.10;99.90;;;;;;4972845;28;20518;-62
2023/10/16 12:29:29;;;;;;;7.72;2.75;;;12.10;99.90;;;;;;4981625;28;20042;-61
2023/10/16 12:32:02;;;;;;;7.57;2.72;;;12.20;99.90;;;;;;4980776;28;20042;-58
2023/10/16 12:34:33;;;;;;;7.15;2.90;;;12.20;99.90;;;;;;4982537;28;20051;-62
2023/10/16 12:37:06;;;;;;;6.68;2.60;;;12.30;99.90;;;;;;4973491;28;20498;-62
2023/10/16 12:39:45;;;;;;;8.27;2.60;;;12.40;99.90;;;;;;4981821;28;20051;-64
2023/10/16 12:42:14;;;;;;;9.27;3.25;;;12.50;99.90;;;;;;4982134;28;20062;-63
2023/10/16 12:44:42;;;;;;;5.60;3.58;;;12.50;99.90;;;;;;4985157;28;20065;-62
2023/10/16 12:47:15;;;;;;;5.93;3.08;;;12.60;99.90;;;;;;4964910;28;20062;-62
2023/10/16 12:50:04;;;;;;;8.38;2.80;;;12.60;99.90;;;;;;4973615;28;20031;-59
2023/10/16 12:52:32;;;;;;;8.88;3.35;;;12.80;99.90;;;;;;4971900;28;20062;-62
2023/10/16 12:55:01;;;;;;;6.28;2.72;;;12.90;99.90;;;;;;4980815;28;20042;-62
2023/10/16 12:57:29;;;;;;;6.63;2.90;;;13.10;99.90;;;;;;4966533;28;20501;-60
2023/10/16 12:59:57;;;;;;;5.72;2.75;;;13.30;99.90;;;;;;4982766;28;20514;-60
2023/10/16 13:02:27;;;;;;;7.63;3.05;;;13.30;99.90;;;;;;4976329;28;20062;-64
2023/10/16 13:05:01;;;;;;;6.82;3.15;;;13.50;99.90;;;;;;4973894;28;20610;-62
2023/10/16 13:07:29;;;;;;;6.88;2.90;;;13.70;99.90;;;;;;4971824;28;20054;-62
2023/10/16 13:10:16;;;;;;;5.93;2.83;;;14.00;99.90;;;;;;4983766;28;20055;-62
2023/10/16 13:12:44;;;;;;;5.55;2.55;;;14.30;99.90;;;;;;4983706;28;20038;-62
2023/10/16 13:15:24;;;;;;;10.52;3.10;;;14.70;99.90;;;;;;4977404;28;20047;-63
2023/10/16 13:17:52;;;;;;;6.88;2.65;;;14.90;99.90;;;;;;4982872;28;20042;-62
2023/10/16 13:20:20;;;;;;;6.50;2.97;;;15.00;99.90;;;;;;4981522;28;20061;-62
2023/10/16 13:22:49;;;;;;;4.88;3.00;;;14.90;99.90;;;;;;4990785;28;20042;-62
2023/10/16 13:25:18;;;;;;;8.63;3.07;;;14.70;99.90;;;;;;4990848;28;20046;-59
2023/10/16 13:27:46;;;;;;;8.05;2.75;;;14.40;99.90;;;;;;4990334;28;20307;-63
2023/10/16 13:30:16;;;;;;;9.38;3.08;;;14.20;99.90;;;;;;4988161;28;20050;-61
2023/10/16 13:32:48;;;;;;;5.93;2.30;;;14.10;99.90;;;;;;4983578;28;20043;-59
2023/10/16 13:35:18;;;;;;;7.50;2.80;;;14.00;99.90;;;;;;4978254;28;20050;-63
2023/10/16 13:37:46;;;;;;;6.40;2.60;;;13.80;99.90;;;;;;4978997;28;20042;-63
2023/10/16 13:40:24;;;;;;;10.05;4.20;;;13.60;99.90;;;;;;4988894;28;20051;-63
2023/10/16 13:42:55;;;;;;;8.10;2.55;;;13.30;99.90;;;;;;4979589;28;20046;-62
2023/10/16 13:45:25;;;;;;;4.25;2.20;;;13.00;99.90;;;;;;4985909;28;21073;-62
2023/10/16 13:47:53;;;;;;;;;;;12.80;99.90;;;;;;4985981;28;20042;-63
2023/10/16 13:50:25;;;;;;;4.57;2.30;;;12.60;99.90;;;;;;4987340;28;19921;-59
2023/10/16 13:52:53;;;;;;;4.57;2.30;;;12.40;99.90;;;;;;4989073;28;20054;-61
2023/10/16 13:55:23;;;;;;;7.82;2.70;;;12.30;99.90;;;;;;4983868;28;20385;-61
2023/10/16 13:57:54;;;;;;;5.25;2.25;;;12.20;99.90;;;;;;4975665;28;20043;-61
2023/10/16 14:00:29;;;;;;;3.78;2.10;;;12.10;99.90;;;;;;4969438;28;20050;-62
2023/10/16 14:03:35;;;;;;;7.25;2.70;;;11.90;99.90;;;;;;4975984;28;20042;-62
2023/10/16 14:05:55;;;;;;;4.43;2.75;;;11.80;99.90;;;;;;4980341;28;20402;-63
2023/10/16 14:08:26;;;;;;;9.10;2.65;;;11.70;99.90;;;;;;4987436;28;20113;-61
2023/10/16 14:10:57;;;;;;;5.35;2.60;;;11.60;99.90;;;;;;4985886;28;20050;-63
2023/10/16 14:13:31;;;;;;;13.23;3.97;;;11.50;99.90;;;;;;4981505;28;20134;-63
2023/10/16 14:16:11;;;;;;;6.10;2.28;;;11.40;99.90;;;;;;4985869;28;20050;-62
2023/10/16 14:18:42;;;;;;;6.30;2.50;;;11.40;99.90;;;;;;4985214;28;20038;-62
2023/10/16 14:21:12;;;;;;;5.80;2.90;;;11.30;99.90;;;;;;4986650;28;20046;-61
2023/10/16 14:23:40;;;;;;;6.82;2.67;;;11.30;99.90;;;;;;4990174;28;20046;-62
2023/10/16 14:26:11;;;;;;;8.10;2.95;;;11.30;99.90;;;;;;4989781;28;20050;-61
2023/10/16 14:28:46;;;;;;;8.93;2.90;;;11.30;99.90;;;;;;4988410;28;20050;-63
2023/10/16 14:31:17;;;;;;;4.95;2.10;;;11.30;99.90;;;;;;4977717;28;20494;-62
2023/10/16 14:33:49;;;;;;;9.23;3.00;;;11.30;99.90;;;;;;4987122;28;20046;-62
2023/10/16 14:36:24;;;;;;;5.68;2.40;;;11.20;99.90;;;;;;4977328;28;20525;-62
2023/10/16 14:38:54;;;;;;;4.78;2.80;;;11.20;99.90;;;;;;4984420;28;20045;-62
2023/10/16 14:41:23;;;;;;;5.55;2.80;;;11.20;99.90;;;;;;4987405;28;20051;-63
2023/10/16 14:43:51;;;;;;;3.83;2.35;;;11.20;99.90;;;;;;4982073;28;20057;-61
2023/10/16 14:46:22;;;;;;;8.73;2.58;;;11.20;99.90;;;;;;4986787;28;20501;-63
2023/10/16 14:48:53;;;;;;;10.18;2.25;;;11.10;99.90;;;;;;4984050;28;20054;-60
2023/10/16 14:51:22;;;;;;;4.13;2.30;;;11.10;99.90;;;;;;4983383;28;20042;-63
2023/10/16 14:53:49;;;;;;;5.80;2.28;;;11.10;99.90;;;;;;4982208;28;20054;-63
2023/10/16 14:56:20;;;;;;;9.10;2.47;;;11.10;99.90;;;;;;4982001;28;20057;-60
2023/10/16 14:58:49;;;;;;;4.70;2.45;;;11.10;99.90;;;;;;4976542;28;20058;-62
2023/10/16 15:01:37;;;;;;;4.50;1.70;;;11.20;99.90;;;;;;4974103;28;20065;-62
2023/10/16 15:04:05;;;;;;;3.28;1.90;;;11.20;99.90;;;;;;4988531;28;20304;-61
2023/10/16 15:06:33;;;;;;;7.22;2.40;;;11.20;99.90;;;;;;4984105;28;20054;-61